createdAt,value
2022-08-18T00:01:11.214Z,11.63
2022-08-18T00:03:56.764Z,10.25
2022-08-18T00:06:30.053Z,16.95
2022-08-18T00:09:01.589Z,13.65
2022-08-18T00:11:40.594Z,14.77
2022-08-18T00:14:11.519Z,9.45
2022-08-18T00:16:41.784Z,12.00
2022-08-18T00:19:09.605Z,10.00
2022-08-18T00:21:37.082Z,11.77
2022-08-18T00:24:04.939Z,12.25
2022-08-18T00:26:36.668Z,9.13
2022-08-18T00:29:04.283Z,12.55
2022-08-18T00:31:32.086Z,10.77
2022-08-18T00:34:00.296Z,10.80
2022-08-18T00:36:27.740Z,10.90
2022-08-18T00:38:55.166Z,8.52
2022-08-18T00:41:26.675Z,9.88
2022-08-18T00:43:54.709Z,12.25
2022-08-18T00:46:30.824Z,10.32
2022-08-18T00:48:58.076Z,9.88
2022-08-18T00:51:34.323Z,10.40
2022-08-18T00:54:23.754Z,9.50
2022-08-18T00:56:52.761Z,11.07
2022-08-18T00:59:28.206Z,12.45
2022-08-18T01:01:57.160Z,9.30
2022-08-18T01:04:35.511Z,10.15
2022-08-18T01:07:20.376Z,10.10
2022-08-18T01:09:51.469Z,15.93
2022-08-18T01:12:44.844Z,10.55
2022-08-18T01:15:07.224Z,10.25
2022-08-18T01:17:53.137Z,12.32
2022-08-18T01:20:41.896Z,10.35
2022-08-18T01:23:17.175Z,9.45
2022-08-18T01:26:03.039Z,11.13
2022-08-18T01:28:31.990Z,11.40
2022-08-18T01:30:59.572Z,12.27
2022-08-18T01:33:32.715Z,11.02
2022-08-18T01:36:12.679Z,13.02
2022-08-18T01:38:40.521Z,11.27
2022-08-18T01:41:25.654Z,12.75
2022-08-18T01:43:55.068Z,10.60
2022-08-18T01:46:23.117Z,11.63
2022-08-18T01:48:50.450Z,9.40
2022-08-18T01:51:20.489Z,11.45
2022-08-18T01:54:06.096Z,10.07
2022-08-18T01:56:33.328Z,9.43
2022-08-18T01:59:00.542Z,8.95
2022-08-18T02:01:36.303Z,8.98
2022-08-18T02:04:30.972Z,10.32
2022-08-18T02:06:52.100Z,10.45
2022-08-18T02:09:24.045Z,10.82
2022-08-18T02:11:55.746Z,9.32
2022-08-18T02:14:26.884Z,9.93
2022-08-18T02:17:01.509Z,8.52
2022-08-18T02:19:38.389Z,10.88
2022-08-18T02:22:06.045Z,10.60
2022-08-18T02:24:33.269Z,10.35
2022-08-18T02:27:00.477Z,8.40
2022-08-18T02:29:27.747Z,8.95
2022-08-18T02:31:55.080Z,7.78
2022-08-18T02:34:22.388Z,10.02
2022-08-18T02:36:49.807Z,10.82
2022-08-18T02:39:17.210Z,10.27
2022-08-18T02:41:44.479Z,9.15
2022-08-18T02:44:11.861Z,9.32
2022-08-18T02:46:39.145Z,7.07
2022-08-18T02:49:08.018Z,9.13
2022-08-18T02:51:35.263Z,9.65
2022-08-18T02:54:02.673Z,9.93
2022-08-18T02:56:32.995Z,8.80
2022-08-18T02:59:14.831Z,7.88
2022-08-18T03:01:44.593Z,8.27
2022-08-18T03:04:14.257Z,7.65
2022-08-18T03:06:41.737Z,6.93
2022-08-18T03:09:09.599Z,9.25
2022-08-18T03:11:37.055Z,7.68
2022-08-18T03:14:05.420Z,8.43
2022-08-18T03:16:33.253Z,7.93
2022-08-18T03:19:01.178Z,8.35
2022-08-18T03:21:29.929Z,10.30
2022-08-18T03:24:01.394Z,10.52
2022-08-18T03:26:29.993Z,7.30
2022-08-18T03:28:57.774Z,9.45
2022-08-18T03:31:27.764Z,8.27
2022-08-18T03:33:57.216Z,8.52
2022-08-18T03:36:28.979Z,8.25
2022-08-18T03:38:56.984Z,8.63
2022-08-18T03:41:57.516Z,7.00
2022-08-18T03:44:14.338Z,6.82
2022-08-18T03:46:44.245Z,9.18
2022-08-18T03:49:11.783Z,7.85
2022-08-18T03:51:40.894Z,7.10
2022-08-18T03:54:08.188Z,7.05
2022-08-18T03:56:37.738Z,8.57
2022-08-18T03:59:12.986Z,6.38
2022-08-18T04:01:41.817Z,6.43
2022-08-18T04:04:11.153Z,6.45
2022-08-18T04:06:43.599Z,6.78
2022-08-18T04:09:13.100Z,7.78
2022-08-18T04:11:43.160Z,8.80
2022-08-18T04:14:15.628Z,7.85
2022-08-18T04:16:42.891Z,6.72
2022-08-18T04:19:10.708Z,5.65
2022-08-18T04:21:38.703Z,6.47
2022-08-18T04:24:07.367Z,6.88
2022-08-18T04:26:40.007Z,6.10
2022-08-18T04:29:07.802Z,6.72
2022-08-18T04:31:35.489Z,6.38
2022-08-18T04:34:03.396Z,10.20
2022-08-18T04:36:31.783Z,5.80
2022-08-18T04:38:59.034Z,6.65
2022-08-18T04:41:27.569Z,6.07
2022-08-18T04:43:58.656Z,6.53
2022-08-18T04:46:26.751Z,7.32
2022-08-18T04:48:58.663Z,6.60
2022-08-18T04:52:36.617Z,7.97
2022-08-18T04:54:15.982Z,7.47
2022-08-18T04:56:43.498Z,8.75
2022-08-18T04:59:12.109Z,8.20
2022-08-18T05:01:41.914Z,8.45
2022-08-18T05:04:09.928Z,14.23
2022-08-18T05:06:37.376Z,7.20
2022-08-18T05:09:06.880Z,8.93
2022-08-18T05:11:34.578Z,13.48
2022-08-18T05:14:06.416Z,8.68
2022-08-18T05:16:36.366Z,8.60
2022-08-18T05:19:19.745Z,7.38
2022-08-18T05:21:53.372Z,8.57
2022-08-18T05:24:26.781Z,9.10
2022-08-18T05:26:55.874Z,7.47
2022-08-18T05:29:23.407Z,7.63
2022-08-18T05:31:51.883Z,7.60
2022-08-18T05:34:21.148Z,7.88
2022-08-18T05:36:51.881Z,6.43
2022-08-18T05:39:19.076Z,6.60
2022-08-18T05:41:49.848Z,6.25
2022-08-18T05:44:20.320Z,10.57
2022-08-18T05:46:56.468Z,8.40
2022-08-18T05:49:25.177Z,8.20
2022-08-18T05:52:13.832Z,6.43
2022-08-18T05:55:05.379Z,7.78
2022-08-18T05:57:37.802Z,8.02
2022-08-18T06:00:07.422Z,8.15
2022-08-18T06:02:48.151Z,6.90
2022-08-18T06:05:21.499Z,8.65
2022-08-18T06:07:53.337Z,9.32
2022-08-18T06:10:20.820Z,8.57
2022-08-18T06:12:51.228Z,10.90
2022-08-18T06:15:39.575Z,9.43
2022-08-18T06:18:32.065Z,7.65
2022-08-18T06:21:10.122Z,7.28
2022-08-18T06:23:55.906Z,9.45
2022-08-18T06:26:35.292Z,9.13
2022-08-18T06:29:03.074Z,10.05
2022-08-18T06:31:40.707Z,12.07
2022-08-18T06:34:33.626Z,7.25
2022-08-18T06:37:06.769Z,8.18
2022-08-18T06:39:47.206Z,6.55
2022-08-18T06:42:18.768Z,6.93
2022-08-18T06:44:52.059Z,7.70
2022-08-18T06:47:37.886Z,10.25
2022-08-18T06:50:13.585Z,9.48
2022-08-18T06:52:53.043Z,7.63
2022-08-18T06:55:35.143Z,8.85
2022-08-18T06:58:13.470Z,9.93
2022-08-18T07:00:56.016Z,8.45
2022-08-18T07:03:36.865Z,10.75
2022-08-18T07:06:11.525Z,9.23
2022-08-18T07:08:45.747Z,11.30
2022-08-18T07:11:24.080Z,10.25
2022-08-18T07:14:15.031Z,11.32
2022-08-18T07:16:59.854Z,18.58
2022-08-18T07:19:30.935Z,8.77
2022-08-18T07:22:07.471Z,13.52
2022-08-18T07:24:54.187Z,9.88
2022-08-18T07:27:23.364Z,12.57
2022-08-18T07:30:07.454Z,10.43
2022-08-18T07:33:05.056Z,7.63
2022-08-18T07:35:58.315Z,6.85
2022-08-18T07:38:54.739Z,9.95
2022-08-18T07:41:26.608Z,10.15
2022-08-18T07:44:00.605Z,10.45
2022-08-18T07:46:43.810Z,8.60
2022-08-18T07:49:19.278Z,8.50
2022-08-18T07:51:53.976Z,7.45
2022-08-18T07:54:49.344Z,8.60
2022-08-18T07:57:52.463Z,13.05
2022-08-18T08:00:54.914Z,9.15
2022-08-18T08:03:41.839Z,6.22
2022-08-18T08:06:36.015Z,6.95
2022-08-18T08:09:23.490Z,10.82
2022-08-18T08:11:58.568Z,6.68
2022-08-18T08:14:45.937Z,13.23
2022-08-18T08:17:24.520Z,7.00
2022-08-18T08:20:08.517Z,11.20
2022-08-18T08:22:46.721Z,10.70
2022-08-18T08:25:46.175Z,10.45
2022-08-18T08:28:25.956Z,8.68
2022-08-18T08:31:36.265Z,14.10
2022-08-18T08:34:12.755Z,9.68
2022-08-18T08:36:42.346Z,9.13
2022-08-18T08:39:31.502Z,12.65
2022-08-18T08:42:31.006Z,10.18
2022-08-18T08:45:00.147Z,12.40
2022-08-18T08:47:38.792Z,9.15
2022-08-18T08:50:16.038Z,13.55
2022-08-18T08:52:57.097Z,9.95
2022-08-18T08:55:26.619Z,10.73
2022-08-18T08:58:28.056Z,9.18
2022-08-18T09:00:55.267Z,10.05
2022-08-18T09:03:46.171Z,10.40
2022-08-18T09:06:38.439Z,13.23
2022-08-18T09:09:12.306Z,12.93
2022-08-18T09:11:42.656Z,14.63
2022-08-18T09:14:45.901Z,8.93
2022-08-18T09:17:52.196Z,7.70
2022-08-18T09:20:51.192Z,11.02
2022-08-18T09:23:21.385Z,8.23
2022-08-18T09:25:50.047Z,7.07
2022-08-18T09:28:27.873Z,8.63
2022-08-18T09:31:07.289Z,6.88
2022-08-18T09:33:45.643Z,6.25
2022-08-18T09:36:31.204Z,8.07
2022-08-18T09:39:20.609Z,7.47
2022-08-18T09:41:56.030Z,10.23
2022-08-18T09:44:55.278Z,8.73
2022-08-18T09:47:24.294Z,9.13
2022-08-18T09:50:04.037Z,9.88
2022-08-18T09:52:37.513Z,8.68
2022-08-18T09:55:17.966Z,11.10
2022-08-18T09:57:46.571Z,8.30
2022-08-18T10:00:28.332Z,11.10
2022-08-18T10:02:56.141Z,11.77
2022-08-18T10:05:29.390Z,9.10
2022-08-18T10:08:01.395Z,7.93
2022-08-18T10:11:00.418Z,11.02
2022-08-18T10:13:49.499Z,7.30
2022-08-18T10:19:53.510Z,9.88
2022-08-18T10:22:43.842Z,9.23
2022-08-18T10:25:22.779Z,12.10
2022-08-18T10:27:55.482Z,7.70
2022-08-18T10:30:56.754Z,9.20
2022-08-18T10:33:53.952Z,6.72
2022-08-18T10:36:47.611Z,9.50
2022-08-18T10:39:24.571Z,11.15
2022-08-18T10:42:05.356Z,10.32
2022-08-18T10:44:42.637Z,12.43
2022-08-18T10:47:11.966Z,9.43
2022-08-18T10:49:46.783Z,10.55
2022-08-18T10:52:18.155Z,8.95
2022-08-18T10:55:23.412Z,8.00
2022-08-18T10:58:00.619Z,8.07
2022-08-18T11:00:52.310Z,6.93
2022-08-18T11:03:55.869Z,11.88
2022-08-18T11:06:27.005Z,9.30
2022-08-18T11:09:00.980Z,10.82
2022-08-18T11:11:52.521Z,6.30
2022-08-18T11:14:55.920Z,7.97
2022-08-18T11:17:50.177Z,8.98
2022-08-18T11:20:18.317Z,4.82
2022-08-18T11:22:55.326Z,7.93
2022-08-18T11:25:38.319Z,9.38
2022-08-18T11:28:18.722Z,13.27
2022-08-18T11:30:48.327Z,8.75
2022-08-18T11:33:22.704Z,10.05
2022-08-18T11:35:58.402Z,13.20
2022-08-18T11:38:29.468Z,7.00
2022-08-18T11:41:17.208Z,9.73
2022-08-18T11:43:47.496Z,6.90
2022-08-18T11:46:31.600Z,9.98
2022-08-18T11:49:00.934Z,9.90
2022-08-18T11:51:32.693Z,8.70
2022-08-18T11:54:12.528Z,7.57
2022-08-18T11:56:40.023Z,7.00
2022-08-18T11:59:07.798Z,8.07
2022-08-18T12:01:51.485Z,7.05
2022-08-18T12:04:30.224Z,8.68
2022-08-18T12:07:10.610Z,11.75
2022-08-18T12:12:32.875Z,6.28
2022-08-18T12:15:22.702Z,10.00
2022-08-18T12:17:52.867Z,7.68
2022-08-18T12:20:20.804Z,9.65
2022-08-18T12:22:49.572Z,7.55
2022-08-18T12:25:24.383Z,10.05
2022-08-18T12:27:53.255Z,10.70
2022-08-18T12:30:20.562Z,6.80
2022-08-18T12:32:50.833Z,8.13
2022-08-18T12:35:22.572Z,10.05
2022-08-18T12:38:12.821Z,8.82
2022-08-18T12:40:37.193Z,11.13
2022-08-18T12:43:05.731Z,9.82
2022-08-18T12:45:33.894Z,7.65
2022-08-18T12:48:02.484Z,8.82
2022-08-18T12:50:35.140Z,5.75
2022-08-18T12:53:06.734Z,11.25
2022-08-18T12:58:28.039Z,6.28
2022-08-18T13:00:55.623Z,8.88
2022-08-18T13:03:24.078Z,9.00
2022-08-18T13:05:54.640Z,9.75
2022-08-18T13:08:30.449Z,6.05
2022-08-18T13:11:14.720Z,6.65
2022-08-18T13:13:55.048Z,7.38
2022-08-18T13:16:39.090Z,7.40
2022-08-18T13:19:13.143Z,8.50
2022-08-18T13:21:43.054Z,7.95
2022-08-18T13:24:12.815Z,7.53
2022-08-18T13:26:42.592Z,5.40
2022-08-18T13:29:17.599Z,9.23
2022-08-18T13:31:55.798Z,7.55
2022-08-18T13:34:29.869Z,8.82
2022-08-18T13:36:57.702Z,9.60
2022-08-18T13:39:25.058Z,5.55
2022-08-18T13:42:01.462Z,7.05
2022-08-18T13:44:49.885Z,10.13
2022-08-18T13:47:22.147Z,9.55
2022-08-18T13:49:58.213Z,9.75
2022-08-18T13:52:34.438Z,10.05
2022-08-18T13:55:08.454Z,6.85
2022-08-18T13:57:39.534Z,6.43
2022-08-18T14:00:18.002Z,10.18
2022-08-18T14:02:48.528Z,7.80
2022-08-18T14:05:16.305Z,10.27
2022-08-18T14:07:44.513Z,8.45
2022-08-18T14:10:13.459Z,8.35
2022-08-18T14:12:41.176Z,8.77
2022-08-18T14:15:10.811Z,6.90
2022-08-18T14:17:38.055Z,8.15
2022-08-18T14:20:27.459Z,7.40
2022-08-18T14:23:21.471Z,11.38
2022-08-18T14:26:07.662Z,8.27
2022-08-18T14:28:35.452Z,10.73
2022-08-18T14:31:07.031Z,7.57
2022-08-18T14:33:50.799Z,8.57
2022-08-18T14:36:19.815Z,8.38
2022-08-18T14:38:51.513Z,9.50
2022-08-18T14:41:19.203Z,7.93
2022-08-18T14:44:11.418Z,14.32
2022-08-18T14:46:35.511Z,7.00
2022-08-18T14:49:03.902Z,7.43
2022-08-18T14:51:33.501Z,11.45
2022-08-18T14:54:01.983Z,11.20
2022-08-18T14:56:29.419Z,10.90
2022-08-18T14:58:56.995Z,7.65
2022-08-18T15:01:24.500Z,7.35
2022-08-18T15:03:54.382Z,10.63
2022-08-18T15:06:23.095Z,9.45
2022-08-18T15:08:57.043Z,8.07
2022-08-18T15:11:24.787Z,7.60
2022-08-18T15:13:55.153Z,7.65
2022-08-18T15:16:31.520Z,7.32
2022-08-18T15:18:59.441Z,10.85
2022-08-18T15:21:47.124Z,9.70
2022-08-18T15:24:37.679Z,8.48
2022-08-18T15:27:10.523Z,12.52
2022-08-18T15:29:46.646Z,13.45
2022-08-18T15:32:15.328Z,9.85
2022-08-18T15:34:47.043Z,8.20
2022-08-18T15:37:19.952Z,10.38
2022-08-18T15:39:51.835Z,11.18
2022-08-18T15:42:23.517Z,8.02
2022-08-18T15:44:53.570Z,8.27
2022-08-18T15:47:22.196Z,8.10
2022-08-18T15:49:52.636Z,8.63
2022-08-18T15:52:25.979Z,12.23
2022-08-18T15:54:57.050Z,8.55
2022-08-18T15:57:39.377Z,12.68
2022-08-18T16:00:12.182Z,9.88
2022-08-18T16:02:40.514Z,9.07
2022-08-18T16:05:14.039Z,10.23
2022-08-18T16:07:45.955Z,10.07
2022-08-18T16:10:14.650Z,11.43
2022-08-18T16:12:45.797Z,8.93
2022-08-18T16:15:15.541Z,7.78
2022-08-18T16:17:47.658Z,9.65
2022-08-18T16:20:15.169Z,9.85
2022-08-18T16:22:42.467Z,7.20
2022-08-18T16:25:09.878Z,9.38
2022-08-18T16:27:41.311Z,13.02
2022-08-18T16:30:14.623Z,9.50
2022-08-18T16:32:42.413Z,9.65
2022-08-18T16:35:09.951Z,10.20
2022-08-18T16:37:37.201Z,13.35
2022-08-18T16:40:05.058Z,9.48
2022-08-18T16:42:33.114Z,10.90
2022-08-18T16:45:00.902Z,10.30
2022-08-18T16:47:28.287Z,11.65
2022-08-18T16:49:58.585Z,16.00
2022-08-18T16:52:27.168Z,13.18
2022-08-18T16:54:58.060Z,11.15
2022-08-18T16:57:54.102Z,9.88
2022-08-18T17:00:42.426Z,10.80
2022-08-18T17:03:29.117Z,9.60
2022-08-18T17:06:04.470Z,14.30
2022-08-18T17:08:34.057Z,11.65
2022-08-18T17:11:02.254Z,10.27
2022-08-18T17:13:29.755Z,14.70
2022-08-18T17:15:56.994Z,13.05
2022-08-18T17:18:24.510Z,15.77
2022-08-18T17:20:52.279Z,18.35
2022-08-18T17:23:22.587Z,12.15
2022-08-18T17:25:49.797Z,9.50
2022-08-18T17:28:18.979Z,10.45
2022-08-18T17:30:51.139Z,7.05
2022-08-18T17:33:24.837Z,10.50
2022-08-18T17:35:54.066Z,9.60
2022-08-18T17:38:27.263Z,18.23
2022-08-18T17:40:56.441Z,23.48
2022-08-18T17:43:25.386Z,30.15
2022-08-18T17:45:54.951Z,28.90
2022-08-18T17:48:34.887Z,29.95
2022-08-18T17:51:28.777Z,34.20
2022-08-18T17:53:59.196Z,31.77
2022-08-18T17:56:52.576Z,25.45
2022-08-18T17:59:46.277Z,14.15
2022-08-18T18:02:29.570Z,11.80
2022-08-18T18:05:02.177Z,8.87
2022-08-18T18:07:54.857Z,5.07
2022-08-18T18:10:51.055Z,3.78
2022-08-18T18:13:24.534Z,5.07
2022-08-18T18:15:54.085Z,4.45
2022-08-18T18:18:41.855Z,6.85
2022-08-18T18:21:15.207Z,2.78
2022-08-18T18:23:47.178Z,3.58
2022-08-18T18:26:25.993Z,2.75
2022-08-18T18:29:08.788Z,5.32
2022-08-18T18:31:36.087Z,5.72
2022-08-18T18:34:40.732Z,5.70
2022-08-18T18:37:24.578Z,3.80
2022-08-18T18:40:00.219Z,5.45
2022-08-18T18:42:29.972Z,6.00
2022-08-18T18:44:59.163Z,4.63
2022-08-18T18:47:59.163Z,7.65
2022-08-18T18:51:10.404Z,6.53
2022-08-18T18:53:46.563Z,3.15
2022-08-18T18:56:25.103Z,4.32
2022-08-18T18:59:07.488Z,2.42
2022-08-18T19:01:36.432Z,5.03
2022-08-18T19:04:06.656Z,4.60
2022-08-18T19:06:45.261Z,2.60
2022-08-18T19:09:36.595Z,4.00
2022-08-18T19:12:20.466Z,2.75
2022-08-18T19:15:00.352Z,2.03
2022-08-18T19:17:39.234Z,1.85
2022-08-18T19:20:15.633Z,4.18
2022-08-18T19:23:01.318Z,3.40
2022-08-18T19:25:35.338Z,5.55
2022-08-18T19:28:07.010Z,3.45
2022-08-18T19:30:35.618Z,3.28
2022-08-18T19:33:03.891Z,6.32
2022-08-18T19:35:59.142Z,2.65
2022-08-18T19:38:33.302Z,5.82
2022-08-18T19:41:27.859Z,2.27
2022-08-18T19:44:01.140Z,2.53
2022-08-18T19:46:44.730Z,3.35
2022-08-18T19:49:20.876Z,3.17
2022-08-18T19:51:49.882Z,4.07
2022-08-18T19:54:38.370Z,2.28
2022-08-18T19:57:11.381Z,2.97
2022-08-18T20:00:07.724Z,2.78
2022-08-18T20:03:03.814Z,2.13
2022-08-18T20:06:33.525Z,3.53
2022-08-18T20:08:52.267Z,5.40
2022-08-18T20:11:46.535Z,7.13
2022-08-18T20:14:15.419Z,5.43
2022-08-18T20:16:45.228Z,8.20
2022-08-18T20:19:37.314Z,9.23
2022-08-18T20:22:06.082Z,9.77
2022-08-18T20:24:53.890Z,11.45
2022-08-18T20:27:26.982Z,18.05
2022-08-18T20:30:37.916Z,13.85
2022-08-18T20:33:23.873Z,16.42
2022-08-18T20:36:12.040Z,15.25
2022-08-18T20:38:49.736Z,16.30
2022-08-18T20:41:30.022Z,17.73
2022-08-18T20:44:21.902Z,19.05
2022-08-18T20:47:15.023Z,22.20
2022-08-18T20:50:14.044Z,21.77
2022-08-18T20:53:00.379Z,25.00
2022-08-18T20:55:48.595Z,26.67
2022-08-18T20:58:23.032Z,27.10
2022-08-18T21:00:52.547Z,26.48
2022-08-18T21:03:23.902Z,29.65
2022-08-18T21:05:56.603Z,24.20
2022-08-18T21:08:28.903Z,25.63
2022-08-18T21:11:04.351Z,23.63
2022-08-18T21:13:51.392Z,25.48
2022-08-18T21:16:38.258Z,21.70
2022-08-18T21:19:09.868Z,22.33
2022-08-18T21:21:44.958Z,29.65
2022-08-18T21:24:36.523Z,25.00
2022-08-18T21:27:31.424Z,22.33
2022-08-18T21:30:01.361Z,27.20
2022-08-18T21:32:33.842Z,29.13
2022-08-18T21:35:05.876Z,24.27
2022-08-18T21:37:39.966Z,28.25
2022-08-18T21:40:07.821Z,23.17
2022-08-18T21:42:43.147Z,27.38
2022-08-18T21:45:16.212Z,26.17
2022-08-18T21:47:51.605Z,29.27
2022-08-18T21:50:23.053Z,27.15
2022-08-18T21:52:59.222Z,28.73
2022-08-18T21:55:31.061Z,28.55
2022-08-18T21:58:04.311Z,29.77
2022-08-18T22:00:41.391Z,31.10
2022-08-18T22:03:23.663Z,32.90
2022-08-18T22:06:03.112Z,31.67
2022-08-18T22:08:43.866Z,31.27
2022-08-18T22:12:01.279Z,30.45
2022-08-18T22:14:54.774Z,30.75
2022-08-18T22:17:31.914Z,29.33
2022-08-18T22:20:38.317Z,26.38
2022-08-18T22:23:32.870Z,21.77
2022-08-18T22:26:26.316Z,20.25
2022-08-18T22:29:05.806Z,21.58
2022-08-18T22:31:35.672Z,17.92
2022-08-18T22:34:07.302Z,16.90
2022-08-18T22:36:37.662Z,17.23
2022-08-18T22:39:08.629Z,15.75
2022-08-18T22:41:36.127Z,17.55
2022-08-18T22:44:05.480Z,18.17
2022-08-18T22:46:33.409Z,16.67
2022-08-18T22:49:00.977Z,15.48
2022-08-18T22:51:28.274Z,13.40
2022-08-18T22:53:56.889Z,12.43
2022-08-18T22:56:34.866Z,12.20
2022-08-18T22:59:15.522Z,11.90
2022-08-18T23:01:48.999Z,9.87
2022-08-18T23:04:17.283Z,9.88
2022-08-18T23:06:54.013Z,8.25
2022-08-18T23:09:26.898Z,8.10
2022-08-18T23:11:58.600Z,7.10
2022-08-18T23:14:25.854Z,8.27
2022-08-18T23:16:53.096Z,10.32
2022-08-18T23:19:20.666Z,7.65
2022-08-18T23:21:48.482Z,10.10
2022-08-18T23:24:16.704Z,7.75
2022-08-18T23:26:44.113Z,8.70
2022-08-18T23:29:12.466Z,8.02
2022-08-18T23:31:40.566Z,6.32
2022-08-18T23:34:08.070Z,11.02
2022-08-18T23:36:41.211Z,7.55
2022-08-18T23:39:09.827Z,8.23
2022-08-18T23:41:38.203Z,7.65
2022-08-18T23:44:06.503Z,9.55
2022-08-18T23:46:33.827Z,9.82
2022-08-18T23:49:02.139Z,9.05
2022-08-18T23:51:32.406Z,8.50
2022-08-18T23:54:02.654Z,10.10
2022-08-18T23:56:30.552Z,13.18
2022-08-18T23:58:57.913Z,8.52
